createdAt,value
2019-04-22T00:01:50.378Z,37.72
2019-04-22T00:04:32.305Z,37.75
2019-04-22T00:07:08.665Z,37.83
2019-04-22T00:09:49.917Z,37.81
2019-04-22T00:12:22.280Z,37.71
2019-04-22T00:14:43.857Z,37.87
2019-04-22T00:17:23.305Z,37.84
2019-04-22T00:19:52.328Z,37.87
2019-04-22T00:22:23.584Z,37.76
2019-04-22T00:24:51.224Z,37.75
2019-04-22T00:27:29.530Z,37.82
2019-04-22T00:30:05.356Z,37.74
2019-04-22T00:32:51.290Z,37.92
2019-04-22T00:35:19.503Z,37.98
2019-04-22T00:37:56.734Z,37.94
2019-04-22T00:40:30.272Z,37.91
2019-04-22T00:42:53.576Z,37.90
2019-04-22T00:45:26.931Z,37.90
2019-04-22T00:48:01.073Z,37.82
2019-04-22T00:53:03.951Z,37.84
2019-04-22T00:55:32.703Z,37.84
2019-04-22T00:58:06.125Z,37.93
2019-04-22T01:00:31.002Z,38.01
2019-04-22T01:03:14.436Z,37.99
2019-04-22T01:05:34.438Z,37.83
2019-04-22T01:08:06.872Z,37.94
2019-04-22T01:10:44.075Z,37.83
2019-04-22T01:13:08.040Z,37.93
2019-04-22T01:15:43.271Z,37.94
2019-04-22T01:18:08.272Z,37.91
2019-04-22T01:23:09.579Z,37.94
2019-04-22T01:25:40.326Z,37.92
2019-04-22T01:28:00.933Z,37.90
2019-04-22T01:30:27.871Z,37.92
2019-04-22T01:32:52.086Z,37.86
2019-04-22T01:35:32.099Z,37.87
2019-04-22T01:38:07.809Z,37.89
2019-04-22T01:40:47.728Z,37.79
2019-04-22T01:43:18.625Z,37.82
2019-04-22T01:45:47.670Z,37.80
2019-04-22T01:48:17.980Z,37.78
2019-04-22T01:50:48.418Z,37.81
2019-04-22T01:53:24.595Z,37.77
2019-04-22T01:55:52.286Z,37.84
2019-04-22T01:58:17.107Z,37.83
2019-04-22T02:00:58.258Z,37.75
2019-04-22T02:03:27.954Z,37.75
2019-04-22T02:05:50.770Z,37.76
2019-04-22T02:08:31.297Z,37.73
2019-04-22T02:10:57.641Z,37.70
2019-04-22T02:13:29.177Z,37.74
2019-04-22T02:16:00.235Z,37.77
2019-04-22T02:18:31.759Z,37.74
2019-04-22T02:20:59.712Z,37.71
2019-04-22T02:26:22.926Z,37.67
2019-04-22T02:28:38.038Z,37.73
2019-04-22T02:31:23.537Z,37.70
2019-04-22T02:43:55.411Z,37.57
2019-04-22T02:51:18.795Z,37.58
2019-04-22T02:54:15.321Z,37.58
2019-04-22T03:01:24.762Z,37.54
2019-04-22T03:04:04.544Z,37.57
2019-04-22T03:11:34.241Z,37.56
2019-04-22T03:16:29.761Z,37.57
2019-04-22T03:24:08.513Z,37.56
2019-04-22T03:26:34.136Z,37.62
2019-04-22T03:39:38.070Z,37.62
2019-04-22T03:47:12.163Z,37.60
2019-04-22T03:49:38.892Z,37.57
2019-04-22T03:52:10.907Z,37.58
2019-04-22T03:57:24.967Z,37.63
2019-04-22T03:59:41.444Z,37.59
2019-04-22T04:04:36.961Z,37.63
2019-04-22T04:07:20.554Z,37.65
2019-04-22T04:17:09.650Z,37.63
2019-04-22T04:19:43.379Z,37.71
2019-04-22T04:22:26.756Z,37.65
2019-04-22T04:24:57.979Z,37.65
2019-04-22T04:27:30.922Z,37.68
2019-04-22T04:32:30.805Z,37.69
2019-04-22T04:37:32.129Z,37.71
2019-04-22T04:39:57.922Z,37.62
2019-04-22T04:47:28.805Z,37.71
2019-04-22T04:52:35.444Z,37.68
2019-04-22T04:57:23.478Z,37.75
2019-04-22T05:02:30.906Z,37.68
2019-04-22T05:07:34.255Z,37.69
2019-04-22T05:09:59.618Z,37.74
2019-04-22T05:12:34.305Z,37.75
2019-04-22T05:14:55.026Z,37.74
2019-04-22T05:17:25.544Z,37.70
2019-04-22T05:19:59.081Z,37.70
2019-04-22T05:22:28.051Z,37.76
2019-04-22T05:24:58.190Z,37.78
2019-04-22T05:27:29.397Z,37.81
2019-04-22T05:30:07.526Z,37.83
2019-04-22T05:32:24.604Z,37.77
2019-04-22T05:34:56.715Z,37.73
2019-04-22T05:37:27.310Z,37.63
2019-04-22T05:39:58.713Z,37.61
2019-04-22T05:42:22.806Z,37.48
2019-04-22T05:47:38.960Z,37.37
2019-04-22T05:50:07.535Z,37.30
2019-04-22T05:52:40.525Z,37.26
2019-04-22T05:55:16.689Z,37.20
2019-04-22T05:57:44.250Z,37.14
2019-04-22T06:00:25.857Z,37.11
2019-04-22T06:02:53.501Z,37.03
2019-04-22T06:05:19.655Z,36.94
2019-04-22T06:07:50.689Z,36.93
2019-04-22T06:10:29.302Z,36.81
2019-04-22T06:12:46.585Z,36.70
2019-04-22T06:15:21.182Z,36.66
2019-04-22T06:17:57.597Z,36.57
2019-04-22T06:20:28.626Z,36.52
2019-04-22T06:25:28.285Z,36.43
2019-04-22T06:27:54.397Z,36.36
2019-04-22T06:33:00.913Z,36.40
2019-04-22T06:38:22.790Z,36.11
2019-04-22T06:43:03.430Z,35.95
2019-04-22T06:45:30.576Z,35.89
2019-04-22T06:50:40.191Z,35.78
2019-04-22T06:53:06.806Z,35.79
2019-04-22T06:55:48.227Z,35.76
2019-04-22T06:58:04.616Z,35.76
2019-04-22T07:00:40.373Z,35.71
2019-04-22T07:03:30.102Z,35.57
2019-04-22T07:05:37.742Z,35.51
2019-04-22T07:08:16.294Z,35.44
2019-04-22T07:13:10.710Z,35.31
2019-04-22T07:18:14.251Z,35.29
2019-04-22T07:20:47.270Z,35.27
2019-04-22T07:23:15.451Z,35.27
2019-04-22T07:25:40.726Z,35.26
2019-04-22T07:28:13.837Z,35.23
2019-04-22T07:30:57.955Z,35.24
2019-04-22T07:38:22.217Z,35.24
2019-04-22T07:40:51.947Z,35.14
2019-04-22T07:43:21.411Z,35.20
2019-04-22T07:46:03.503Z,35.10
2019-04-22T07:48:26.194Z,35.05
2019-04-22T07:50:56.038Z,35.05
2019-04-22T07:53:19.605Z,35.10
2019-04-22T07:55:55.461Z,35.15
2019-04-22T07:58:27.405Z,35.14
2019-04-22T08:00:55.953Z,35.12
2019-04-22T08:03:28.982Z,35.08
2019-04-22T08:06:08.318Z,35.06
2019-04-22T08:08:26.149Z,35.09
2019-04-22T08:10:57.929Z,35.04
2019-04-22T08:13:24.817Z,34.93
2019-04-22T08:15:58.269Z,35.03
2019-04-22T08:18:28.978Z,34.78
2019-04-22T08:20:59.015Z,34.89
2019-04-22T08:23:30.919Z,34.61
2019-04-22T08:25:55.700Z,34.79
2019-04-22T08:28:32.112Z,34.60
2019-04-22T08:31:04.188Z,34.78
2019-04-22T08:38:37.257Z,34.82
2019-04-22T08:41:17.792Z,34.82
2019-04-22T08:43:54.662Z,34.73
2019-04-22T08:46:16.690Z,34.77
2019-04-22T08:48:43.980Z,34.75
2019-04-22T08:51:15.469Z,34.62
2019-04-22T08:53:50.459Z,34.68
2019-04-22T08:58:55.495Z,34.45
2019-04-22T09:03:52.359Z,34.59
2019-04-22T09:06:34.193Z,34.43
2019-04-22T09:08:55.308Z,34.29
2019-04-22T09:11:33.714Z,34.08
2019-04-22T09:13:55.159Z,34.26
2019-04-22T09:16:26.495Z,34.37
2019-04-22T09:18:56.109Z,34.16
2019-04-22T09:21:44.052Z,34.12
2019-04-22T09:24:02.154Z,34.24
2019-04-22T09:26:34.761Z,33.99
2019-04-22T09:28:59.939Z,34.16
2019-04-22T09:31:24.232Z,33.99
2019-04-22T09:33:53.620Z,33.92
2019-04-22T09:39:09.480Z,33.43
2019-04-22T09:41:36.751Z,33.51
2019-04-22T09:46:34.639Z,33.27
2019-04-22T09:49:08.028Z,33.16
2019-04-22T09:51:30.738Z,33.13
2019-04-22T09:54:08.628Z,33.07
2019-04-22T09:56:37.343Z,33.16
2019-04-22T09:59:03.816Z,33.19
2019-04-22T10:04:06.970Z,33.02
2019-04-22T10:06:47.911Z,33.06
2019-04-22T10:11:47.054Z,32.86
2019-04-22T10:14:12.343Z,32.49
2019-04-22T10:16:43.652Z,32.80
2019-04-22T10:19:12.328Z,32.54
2019-04-22T10:21:46.331Z,32.77
2019-04-22T10:24:13.726Z,32.73
2019-04-22T10:31:43.565Z,32.26
2019-04-22T10:34:05.878Z,32.51
2019-04-22T10:36:21.437Z,32.60
2019-04-22T10:38:50.880Z,32.79
2019-04-22T10:41:20.707Z,32.92
2019-04-22T10:43:50.943Z,32.96
2019-04-22T10:46:19.931Z,32.96
2019-04-22T10:48:50.042Z,32.81
2019-04-22T10:51:18.994Z,33.06
2019-04-22T10:53:49.247Z,33.20
2019-04-22T10:56:19.009Z,33.32
2019-04-22T10:58:48.920Z,33.42
2019-04-22T11:01:17.996Z,33.47
2019-04-22T11:03:46.967Z,33.54
2019-04-22T11:06:17.158Z,33.62
2019-04-22T11:08:52.338Z,33.57
2019-04-22T11:11:31.436Z,33.34
2019-04-22T11:13:47.560Z,33.45
2019-04-22T11:16:17.434Z,33.65
2019-04-22T11:18:47.550Z,33.37
2019-04-22T11:21:17.911Z,33.50
2019-04-22T11:23:47.104Z,33.71
2019-04-22T11:26:15.937Z,33.76
2019-04-22T11:28:45.480Z,34.02
2019-04-22T11:31:14.853Z,34.08
2019-04-22T11:33:44.808Z,34.02
2019-04-22T11:36:15.616Z,34.09
2019-04-22T11:38:51.146Z,34.41
2019-04-22T11:41:16.733Z,34.48
2019-04-22T11:43:47.378Z,34.36
2019-04-22T11:46:17.646Z,34.68
2019-04-22T11:48:46.093Z,34.83
2019-04-22T11:51:15.942Z,34.88
2019-04-22T11:53:45.176Z,35.02
2019-04-22T11:56:14.199Z,34.80
2019-04-22T11:58:44.504Z,34.83
2019-04-22T12:01:14.793Z,35.00
2019-04-22T12:03:44.229Z,35.15
2019-04-22T12:06:13.485Z,35.25
2019-04-22T12:08:43.720Z,35.31
2019-04-22T12:11:13.717Z,35.09
2019-04-22T12:13:44.042Z,35.07
2019-04-22T12:16:13.623Z,35.26
2019-04-22T12:18:43.083Z,34.73
2019-04-22T12:21:13.176Z,34.93
2019-04-22T12:23:43.452Z,35.25
2019-04-22T12:26:16.258Z,35.40
2019-04-22T12:28:42.314Z,35.36
2019-04-22T12:31:11.355Z,35.49
2019-04-22T12:33:41.260Z,35.33
2019-04-22T12:36:11.074Z,35.29
2019-04-22T12:38:40.049Z,35.20
2019-04-22T12:41:11.964Z,34.98
2019-04-22T12:43:40.980Z,34.95
2019-04-22T12:46:10.240Z,34.98
2019-04-22T12:48:39.341Z,35.29
2019-04-22T12:51:09.224Z,35.20
2019-04-22T12:53:38.358Z,35.19
2019-04-22T12:56:07.378Z,35.12
2019-04-22T12:58:37.829Z,34.91
2019-04-22T13:01:08.658Z,34.82
2019-04-22T13:03:38.292Z,34.70
2019-04-22T13:06:07.848Z,34.94
2019-04-22T13:08:38.085Z,35.04
2019-04-22T13:11:11.713Z,34.98
2019-04-22T13:13:38.721Z,35.07
2019-04-22T13:16:08.996Z,34.84
2019-04-22T13:18:44.378Z,34.38
2019-04-22T13:21:08.767Z,34.33
2019-04-22T13:23:38.945Z,34.38
2019-04-22T13:26:07.507Z,34.58
2019-04-22T13:28:36.852Z,34.92
2019-04-22T13:31:05.936Z,35.09
2019-04-22T13:33:34.785Z,35.09
2019-04-22T13:36:03.853Z,35.07
2019-04-22T13:38:33.170Z,35.01
2019-04-22T13:41:16.422Z,35.04
2019-04-22T13:43:34.330Z,35.05
2019-04-22T13:46:03.890Z,34.67
2019-04-22T13:48:53.378Z,34.80
2019-04-22T13:51:43.161Z,34.11
2019-04-22T13:56:24.893Z,33.81
2019-04-22T13:58:49.877Z,33.62
2019-04-22T14:01:12.700Z,33.71
2019-04-22T14:04:00.837Z,33.87
2019-04-22T14:06:31.092Z,34.21
2019-04-22T14:09:01.023Z,33.77
2019-04-22T14:11:39.064Z,33.60
2019-04-22T14:14:00.974Z,33.29
2019-04-22T14:16:31.133Z,33.13
2019-04-22T14:19:00.515Z,33.14
2019-04-22T14:21:30.591Z,33.27
2019-04-22T14:23:58.794Z,33.58
2019-04-22T14:26:41.331Z,33.38
2019-04-22T14:28:59.911Z,32.82
2019-04-22T14:31:28.969Z,32.85
2019-04-22T14:34:01.724Z,33.10
2019-04-22T14:36:29.746Z,33.06
2019-04-22T14:38:59.763Z,33.04
2019-04-22T14:41:42.572Z,32.71
2019-04-22T14:45:04.997Z,32.96
2019-04-22T14:47:03.557Z,32.63
2019-04-22T14:49:24.027Z,32.11
2019-04-22T14:51:55.025Z,32.02
2019-04-22T14:54:21.179Z,32.11
2019-04-22T14:56:34.199Z,32.35
2019-04-22T14:59:04.985Z,32.33
2019-04-22T15:01:35.314Z,32.58
2019-04-22T15:04:05.450Z,32.51
2019-04-22T15:06:35.806Z,32.23
2019-04-22T15:09:08.057Z,32.32
2019-04-22T15:11:50.775Z,32.33
2019-04-22T15:14:07.740Z,31.96
2019-04-22T15:16:55.162Z,32.24
2019-04-22T15:19:43.589Z,31.71
2019-04-22T15:22:12.893Z,32.08
2019-04-22T15:24:42.632Z,32.23
2019-04-22T15:27:11.629Z,31.78
2019-04-22T15:29:41.163Z,31.69
2019-04-22T15:32:11.771Z,30.99
2019-04-22T15:34:41.597Z,31.20
2019-04-22T15:37:11.834Z,31.26
2019-04-22T15:39:41.522Z,30.71
2019-04-22T15:42:18.417Z,31.06
2019-04-22T15:44:42.215Z,30.41
2019-04-22T15:47:11.295Z,30.92
2019-04-22T15:49:40.319Z,31.20
2019-04-22T15:52:10.447Z,30.46
2019-04-22T15:54:39.437Z,30.91
2019-04-22T15:57:08.959Z,30.36
2019-04-22T15:59:54.081Z,30.86
2019-04-22T16:02:10.051Z,30.58
2019-04-22T16:04:41.006Z,30.47
2019-04-22T16:07:10.860Z,30.27
2019-04-22T16:09:41.518Z,30.39
2019-04-22T16:12:18.792Z,30.32
2019-04-22T16:14:47.351Z,30.65
2019-04-22T16:17:12.752Z,30.64
2019-04-22T16:19:43.260Z,30.46
2019-04-22T16:22:18.336Z,30.74
2019-04-22T16:24:58.187Z,30.75
2019-04-22T16:27:28.347Z,30.12
2019-04-22T16:29:57.349Z,29.78
2019-04-22T16:32:27.807Z,29.74
2019-04-22T16:34:56.860Z,29.95
2019-04-22T16:37:25.916Z,29.64
2019-04-22T16:39:54.897Z,29.34
2019-04-22T16:42:33.767Z,30.20
2019-04-22T16:44:55.686Z,29.70
2019-04-22T16:47:25.712Z,29.58
2019-04-22T16:49:55.202Z,29.42
2019-04-22T16:52:25.853Z,29.34
2019-04-22T16:54:55.093Z,29.61
2019-04-22T16:57:26.025Z,29.91
2019-04-22T16:59:54.977Z,29.26
2019-04-22T17:02:45.224Z,29.46
2019-04-22T17:05:41.399Z,29.41
2019-04-22T17:08:12.210Z,29.76
2019-04-22T17:10:41.912Z,29.72
2019-04-22T17:13:17.499Z,30.00
2019-04-22T17:15:41.684Z,29.69
2019-04-22T17:18:10.607Z,30.01
2019-04-22T17:20:40.456Z,29.98
2019-04-22T17:23:09.680Z,29.72
2019-04-22T17:25:38.655Z,29.50
2019-04-22T17:28:07.842Z,29.89
2019-04-22T17:30:36.810Z,29.52
2019-04-22T17:33:05.826Z,29.91
2019-04-22T17:35:36.013Z,29.81
2019-04-22T17:38:12.671Z,29.65
2019-04-22T17:40:52.245Z,29.67
2019-04-22T17:43:36.082Z,29.70
2019-04-22T17:46:12.035Z,29.72
2019-04-22T17:48:57.834Z,29.76
2019-04-22T17:51:31.428Z,29.95
2019-04-22T17:54:02.872Z,29.49
2019-04-22T17:56:33.970Z,29.78
2019-04-22T17:59:02.463Z,29.73
2019-04-22T18:01:35.671Z,30.26
2019-04-22T18:03:52.849Z,30.22
2019-04-22T18:06:46.945Z,30.02
2019-04-22T18:09:05.317Z,30.23
2019-04-22T18:12:01.091Z,30.37
2019-04-22T18:14:30.462Z,30.55
2019-04-22T18:16:41.280Z,30.26
2019-04-22T18:19:10.127Z,30.21
2019-04-22T18:21:36.151Z,30.71
2019-04-22T18:24:02.674Z,30.50
2019-04-22T18:26:43.511Z,30.54
2019-04-22T18:29:11.284Z,30.52
2019-04-22T18:31:38.572Z,30.62
2019-04-22T18:34:10.122Z,30.95
2019-04-22T18:36:40.525Z,31.29
2019-04-22T18:39:22.702Z,31.46
2019-04-22T18:41:43.982Z,31.30
2019-04-22T18:44:19.930Z,31.35
2019-04-22T18:46:50.950Z,31.36
2019-04-22T18:49:17.202Z,31.42
2019-04-22T18:51:51.839Z,31.06
2019-04-22T18:54:48.514Z,31.17
2019-04-22T18:57:20.778Z,30.46
2019-04-22T18:59:34.133Z,31.28
2019-04-22T19:02:05.364Z,31.22
2019-04-22T19:04:40.887Z,31.03
2019-04-22T19:07:33.197Z,31.31
2019-04-22T19:12:32.041Z,31.69
2019-04-22T19:14:57.033Z,31.71
2019-04-22T19:17:35.432Z,31.85
2019-04-22T19:20:02.847Z,31.80
2019-04-22T19:22:29.941Z,31.58
2019-04-22T19:24:54.691Z,31.81
2019-04-22T19:27:24.860Z,31.65
2019-04-22T19:30:07.479Z,31.56
2019-04-22T19:32:34.657Z,31.79
2019-04-22T19:34:57.152Z,31.92
2019-04-22T19:37:28.417Z,31.68
2019-04-22T19:40:09.493Z,31.76
2019-04-22T19:42:40.818Z,31.42
2019-04-22T19:45:02.617Z,31.78
2019-04-22T19:47:38.975Z,31.95
2019-04-22T19:50:15.036Z,32.19
2019-04-22T19:52:50.069Z,31.98
2019-04-22T19:55:11.002Z,31.47
2019-04-22T19:57:37.424Z,31.10
2019-04-22T20:00:11.060Z,31.45
2019-04-22T20:03:14.886Z,31.57
2019-04-22T20:05:43.891Z,31.95
2019-04-22T20:08:14.514Z,31.79
2019-04-22T20:10:46.125Z,31.96
2019-04-22T20:13:19.964Z,31.71
2019-04-22T20:15:41.145Z,31.76
2019-04-22T20:18:27.056Z,31.37
2019-04-22T20:20:56.116Z,31.15
2019-04-22T20:23:14.458Z,31.47
2019-04-22T20:25:44.547Z,31.15
2019-04-22T20:28:19.359Z,31.39
2019-04-22T20:30:50.580Z,31.24
2019-04-22T20:33:27.095Z,31.39
2019-04-22T20:35:55.846Z,31.20
2019-04-22T20:38:27.713Z,30.94
2019-04-22T20:40:55.681Z,31.55
2019-04-22T20:43:33.304Z,30.62
2019-04-22T20:45:57.721Z,31.03
2019-04-22T20:48:16.941Z,31.12
2019-04-22T20:50:57.835Z,31.44
2019-04-22T20:53:31.173Z,31.43
2019-04-22T20:56:00.700Z,31.30
2019-04-22T20:58:28.639Z,31.13
2019-04-22T21:00:53.050Z,31.54
2019-04-22T21:03:20.893Z,31.32
2019-04-22T21:05:53.054Z,31.18
2019-04-22T21:08:35.111Z,31.25
2019-04-22T21:10:50.986Z,31.15
2019-04-22T21:13:28.141Z,31.07
2019-04-22T21:16:09.405Z,31.10
2019-04-22T21:18:30.756Z,31.02
2019-04-22T21:21:09.631Z,31.63
2019-04-22T21:23:27.617Z,31.99
2019-04-22T21:26:11.076Z,32.03
2019-04-22T21:28:38.373Z,32.30
2019-04-22T21:31:14.860Z,32.23
2019-04-22T21:33:40.833Z,32.41
2019-04-22T21:38:42.448Z,32.44
2019-04-22T21:41:09.969Z,32.45
2019-04-22T21:43:44.956Z,32.45
2019-04-22T21:46:13.105Z,32.48
2019-04-22T21:48:59.716Z,32.51
2019-04-22T21:51:19.182Z,32.54
2019-04-22T21:53:52.529Z,32.58
2019-04-22T21:59:00.141Z,32.69
2019-04-22T22:01:35.510Z,32.68
2019-04-22T22:04:00.163Z,32.79
2019-04-22T22:06:23.510Z,32.79
2019-04-22T22:09:05.906Z,32.99
2019-04-22T22:11:27.786Z,33.04
2019-04-22T22:14:01.927Z,32.93
2019-04-22T22:16:30.820Z,32.83
2019-04-22T22:19:08.099Z,33.18
2019-04-22T22:24:10.139Z,33.17
2019-04-22T22:26:40.581Z,33.05
2019-04-22T22:29:10.413Z,33.27
2019-04-22T22:31:41.285Z,33.13
2019-04-22T22:34:09.746Z,33.21
2019-04-22T22:36:33.543Z,33.10
2019-04-22T22:39:04.000Z,33.31
2019-04-22T22:41:19.679Z,33.49
2019-04-22T22:43:51.120Z,33.30
2019-04-22T22:46:31.875Z,33.23
2019-04-22T22:49:09.838Z,33.17
2019-04-22T22:51:47.507Z,33.33
2019-04-22T22:54:16.525Z,33.23
2019-04-22T22:56:47.553Z,33.26
2019-04-22T22:59:18.561Z,33.35
2019-04-22T23:01:45.380Z,33.31
2019-04-22T23:04:20.906Z,33.43
2019-04-22T23:06:53.230Z,33.57
2019-04-22T23:09:13.386Z,33.63
2019-04-22T23:14:21.488Z,33.72
2019-04-22T23:16:37.788Z,33.90
2019-04-22T23:19:06.385Z,33.95
2019-04-22T23:21:42.753Z,34.21
2019-04-22T23:24:35.978Z,34.23
2019-04-22T23:27:04.385Z,34.05
2019-04-22T23:29:45.957Z,34.11
2019-04-22T23:32:22.720Z,34.35
2019-04-22T23:35:01.734Z,34.37
2019-04-22T23:37:28.939Z,33.99
2019-04-22T23:40:16.045Z,34.12
2019-04-22T23:42:41.104Z,34.59
2019-04-22T23:45:10.816Z,34.49
2019-04-22T23:47:49.923Z,34.71
2019-04-22T23:50:33.975Z,34.49
2019-04-22T23:53:04.837Z,34.86
2019-04-22T23:55:37.433Z,34.93
2019-04-22T23:58:02.716Z,35.09
